sensor_id;sensor_type;location;lat;lon;timestamp;P1;durP1;ratioP1;P2;durP2;ratioP2
14903;SDS011;7543;53.148;8.234;2023-06-22T00:00:44;15.43;;;11.13;;
14903;SDS011;7543;53.148;8.234;2023-06-22T00:03:13;14.63;;;10.47;;
14903;SDS011;7543;53.148;8.234;2023-06-22T00:05:42;15.70;;;11.27;;
14903;SDS011;7543;53.148;8.234;2023-06-22T00:08:12;14.77;;;10.97;;
14903;SDS011;7543;53.148;8.234;2023-06-22T00:10:42;17.27;;;12.23;;
14903;SDS011;7543;53.148;8.234;2023-06-22T00:13:11;15.40;;;10.70;;
14903;SDS011;7543;53.148;8.234;2023-06-22T00:15:40;15.77;;;10.63;;
14903;SDS011;7543;53.148;8.234;2023-06-22T00:18:09;16.77;;;10.93;;
14903;SDS011;7543;53.148;8.234;2023-06-22T00:20:38;15.43;;;11.00;;
14903;SDS011;7543;53.148;8.234;2023-06-22T00:23:07;15.27;;;10.70;;
14903;SDS011;7543;53.148;8.234;2023-06-22T00:25:37;17.13;;;11.07;;
14903;SDS011;7543;53.148;8.234;2023-06-22T00:28:06;14.97;;;11.00;;
14903;SDS011;7543;53.148;8.234;2023-06-22T00:30:35;17.03;;;11.70;;
14903;SDS011;7543;53.148;8.234;2023-06-22T00:33:04;13.70;;;10.80;;
14903;SDS011;7543;53.148;8.234;2023-06-22T00:35:34;14.60;;;9.97;;
14903;SDS011;7543;53.148;8.234;2023-06-22T00:38:02;14.60;;;11.03;;
14903;SDS011;7543;53.148;8.234;2023-06-22T00:40:32;17.43;;;11.83;;
14903;SDS011;7543;53.148;8.234;2023-06-22T00:43:02;16.10;;;11.03;;
14903;SDS011;7543;53.148;8.234;2023-06-22T00:45:31;17.70;;;11.13;;
14903;SDS011;7543;53.148;8.234;2023-06-22T00:48:00;15.73;;;11.70;;
14903;SDS011;7543;53.148;8.234;2023-06-22T00:50:29;17.03;;;12.33;;
14903;SDS011;7543;53.148;8.234;2023-06-22T00:53:00;17.03;;;12.17;;
14903;SDS011;7543;53.148;8.234;2023-06-22T00:55:35;17.83;;;11.33;;
14903;SDS011;7543;53.148;8.234;2023-06-22T00:58:07;15.87;;;11.83;;
14903;SDS011;7543;53.148;8.234;2023-06-22T01:00:37;18.30;;;12.17;;
14903;SDS011;7543;53.148;8.234;2023-06-22T01:03:05;16.87;;;11.93;;
14903;SDS011;7543;53.148;8.234;2023-06-22T01:05:36;18.00;;;11.37;;
14903;SDS011;7543;53.148;8.234;2023-06-22T01:08:06;16.73;;;12.03;;
14903;SDS011;7543;53.148;8.234;2023-06-22T01:10:41;16.37;;;11.93;;
14903;SDS011;7543;53.148;8.234;2023-06-22T01:13:16;17.27;;;12.30;;
14903;SDS011;7543;53.148;8.234;2023-06-22T01:15:52;20.00;;;13.00;;
14903;SDS011;7543;53.148;8.234;2023-06-22T01:18:25;19.27;;;13.03;;
14903;SDS011;7543;53.148;8.234;2023-06-22T01:20:55;18.43;;;12.40;;
14903;SDS011;7543;53.148;8.234;2023-06-22T01:23:27;18.07;;;13.13;;
14903;SDS011;7543;53.148;8.234;2023-06-22T01:26:02;19.07;;;13.37;;
14903;SDS011;7543;53.148;8.234;2023-06-22T01:28:43;19.03;;;13.73;;
14903;SDS011;7543;53.148;8.234;2023-06-22T01:31:14;17.80;;;12.73;;
14903;SDS011;7543;53.148;8.234;2023-06-22T01:33:45;20.53;;;13.57;;
14903;SDS011;7543;53.148;8.234;2023-06-22T01:36:16;17.20;;;11.83;;
14903;SDS011;7543;53.148;8.234;2023-06-22T01:38:47;18.80;;;12.70;;
14903;SDS011;7543;53.148;8.234;2023-06-22T01:41:15;17.77;;;12.60;;
14903;SDS011;7543;53.148;8.234;2023-06-22T01:43:48;19.03;;;12.40;;
14903;SDS011;7543;53.148;8.234;2023-06-22T01:46:16;15.00;;;11.17;;
14903;SDS011;7543;53.148;8.234;2023-06-22T01:48:46;18.50;;;13.10;;
14903;SDS011;7543;53.148;8.234;2023-06-22T01:51:15;18.17;;;13.03;;
14903;SDS011;7543;53.148;8.234;2023-06-22T01:53:44;18.30;;;12.10;;
14903;SDS011;7543;53.148;8.234;2023-06-22T01:56:12;18.03;;;13.20;;
14903;SDS011;7543;53.148;8.234;2023-06-22T01:58:42;19.53;;;13.00;;
14903;SDS011;7543;53.148;8.234;2023-06-22T02:01:17;19.00;;;12.87;;
14903;SDS011;7543;53.148;8.234;2023-06-22T02:03:50;18.23;;;13.07;;
14903;SDS011;7543;53.148;8.234;2023-06-22T02:06:21;18.73;;;13.73;;
14903;SDS011;7543;53.148;8.234;2023-06-22T02:08:53;19.87;;;12.33;;
14903;SDS011;7543;53.148;8.234;2023-06-22T02:11:25;17.33;;;12.43;;
14903;SDS011;7543;53.148;8.234;2023-06-22T02:13:56;19.37;;;13.50;;
14903;SDS011;7543;53.148;8.234;2023-06-22T02:16:26;17.63;;;13.03;;
14903;SDS011;7543;53.148;8.234;2023-06-22T02:18:56;20.50;;;12.90;;
14903;SDS011;7543;53.148;8.234;2023-06-22T02:21:29;20.43;;;14.10;;
14903;SDS011;7543;53.148;8.234;2023-06-22T02:23:59;21.37;;;13.00;;
14903;SDS011;7543;53.148;8.234;2023-06-22T02:26:30;19.17;;;14.23;;
14903;SDS011;7543;53.148;8.234;2023-06-22T02:29:03;22.53;;;14.13;;
14903;SDS011;7543;53.148;8.234;2023-06-22T02:31:31;19.43;;;14.30;;
14903;SDS011;7543;53.148;8.234;2023-06-22T02:33:59;18.80;;;13.70;;
14903;SDS011;7543;53.148;8.234;2023-06-22T02:36:28;19.63;;;13.77;;
14903;SDS011;7543;53.148;8.234;2023-06-22T02:38:57;18.80;;;13.57;;
14903;SDS011;7543;53.148;8.234;2023-06-22T02:41:25;18.90;;;13.30;;
14903;SDS011;7543;53.148;8.234;2023-06-22T02:43:56;20.50;;;13.73;;
14903;SDS011;7543;53.148;8.234;2023-06-22T02:46:27;19.57;;;13.97;;
14903;SDS011;7543;53.148;8.234;2023-06-22T02:48:56;22.30;;;13.60;;
14903;SDS011;7543;53.148;8.234;2023-06-22T02:51:25;18.57;;;14.30;;
14903;SDS011;7543;53.148;8.234;2023-06-22T02:53:53;18.87;;;14.00;;
14903;SDS011;7543;53.148;8.234;2023-06-22T02:56:25;22.47;;;14.67;;
14903;SDS011;7543;53.148;8.234;2023-06-22T02:58:58;18.93;;;13.97;;
14903;SDS011;7543;53.148;8.234;2023-06-22T03:01:32;19.70;;;13.23;;
14903;SDS011;7543;53.148;8.234;2023-06-22T03:04:05;19.67;;;14.20;;
14903;SDS011;7543;53.148;8.234;2023-06-22T03:06:35;20.53;;;13.97;;
14903;SDS011;7543;53.148;8.234;2023-06-22T03:09:03;19.67;;;13.80;;
14903;SDS011;7543;53.148;8.234;2023-06-22T03:11:34;19.47;;;15.13;;
14903;SDS011;7543;53.148;8.234;2023-06-22T03:14:03;19.53;;;13.70;;
14903;SDS011;7543;53.148;8.234;2023-06-22T03:16:33;19.93;;;14.47;;
14903;SDS011;7543;53.148;8.234;2023-06-22T03:19:02;18.77;;;13.13;;
14903;SDS011;7543;53.148;8.234;2023-06-22T03:21:31;19.60;;;13.23;;
14903;SDS011;7543;53.148;8.234;2023-06-22T03:24:01;17.80;;;12.43;;
14903;SDS011;7543;53.148;8.234;2023-06-22T03:26:29;21.53;;;15.03;;
14903;SDS011;7543;53.148;8.234;2023-06-22T03:28:58;19.33;;;13.70;;
14903;SDS011;7543;53.148;8.234;2023-06-22T03:31:28;20.23;;;13.57;;
14903;SDS011;7543;53.148;8.234;2023-06-22T03:33:58;19.13;;;14.10;;
14903;SDS011;7543;53.148;8.234;2023-06-22T03:36:27;19.63;;;13.83;;
14903;SDS011;7543;53.148;8.234;2023-06-22T03:38:55;19.50;;;13.70;;
14903;SDS011;7543;53.148;8.234;2023-06-22T03:41:24;21.67;;;14.07;;
14903;SDS011;7543;53.148;8.234;2023-06-22T03:43:53;21.60;;;14.17;;
14903;SDS011;7543;53.148;8.234;2023-06-22T03:46:21;20.53;;;14.40;;
14903;SDS011;7543;53.148;8.234;2023-06-22T03:48:50;19.00;;;13.63;;
14903;SDS011;7543;53.148;8.234;2023-06-22T03:51:19;20.80;;;14.10;;
14903;SDS011;7543;53.148;8.234;2023-06-22T03:53:48;22.53;;;14.80;;
14903;SDS011;7543;53.148;8.234;2023-06-22T03:56:16;20.57;;;14.13;;
14903;SDS011;7543;53.148;8.234;2023-06-22T03:58:47;20.83;;;14.43;;
14903;SDS011;7543;53.148;8.234;2023-06-22T04:01:15;20.63;;;14.07;;
14903;SDS011;7543;53.148;8.234;2023-06-22T04:03:44;20.63;;;14.07;;
14903;SDS011;7543;53.148;8.234;2023-06-22T04:06:14;19.70;;;13.63;;
14903;SDS011;7543;53.148;8.234;2023-06-22T04:08:45;20.43;;;13.43;;
14903;SDS011;7543;53.148;8.234;2023-06-22T04:11:17;17.43;;;12.83;;
14903;SDS011;7543;53.148;8.234;2023-06-22T04:13:46;20.00;;;13.73;;
14903;SDS011;7543;53.148;8.234;2023-06-22T04:16:15;19.40;;;13.47;;
14903;SDS011;7543;53.148;8.234;2023-06-22T04:18:43;21.73;;;13.40;;
14903;SDS011;7543;53.148;8.234;2023-06-22T04:21:12;19.70;;;13.63;;
14903;SDS011;7543;53.148;8.234;2023-06-22T04:23:41;22.30;;;14.87;;
14903;SDS011;7543;53.148;8.234;2023-06-22T04:26:11;18.90;;;14.00;;
14903;SDS011;7543;53.148;8.234;2023-06-22T04:28:40;17.90;;;13.40;;
14903;SDS011;7543;53.148;8.234;2023-06-22T04:31:08;17.43;;;12.93;;
14903;SDS011;7543;53.148;8.234;2023-06-22T04:33:37;19.50;;;12.60;;
14903;SDS011;7543;53.148;8.234;2023-06-22T04:36:07;16.50;;;11.73;;
14903;SDS011;7543;53.148;8.234;2023-06-22T04:38:35;18.53;;;12.17;;
14903;SDS011;7543;53.148;8.234;2023-06-22T04:41:04;17.30;;;12.60;;
14903;SDS011;7543;53.148;8.234;2023-06-22T04:43:34;18.73;;;13.20;;
14903;SDS011;7543;53.148;8.234;2023-06-22T04:46:03;21.07;;;14.07;;
14903;SDS011;7543;53.148;8.234;2023-06-22T04:48:31;19.50;;;14.30;;
14903;SDS011;7543;53.148;8.234;2023-06-22T04:51:00;19.73;;;14.53;;
14903;SDS011;7543;53.148;8.234;2023-06-22T04:53:30;19.70;;;13.20;;
14903;SDS011;7543;53.148;8.234;2023-06-22T04:55:59;20.40;;;14.27;;
14903;SDS011;7543;53.148;8.234;2023-06-22T04:58:27;22.20;;;14.90;;
14903;SDS011;7543;53.148;8.234;2023-06-22T05:01:00;28.03;;;16.73;;
14903;SDS011;7543;53.148;8.234;2023-06-22T05:03:30;24.37;;;16.27;;
14903;SDS011;7543;53.148;8.234;2023-06-22T05:05:58;25.50;;;15.93;;
14903;SDS011;7543;53.148;8.234;2023-06-22T05:08:27;21.90;;;15.20;;
14903;SDS011;7543;53.148;8.234;2023-06-22T05:10:55;22.10;;;14.83;;
14903;SDS011;7543;53.148;8.234;2023-06-22T05:13:24;22.80;;;14.87;;
14903;SDS011;7543;53.148;8.234;2023-06-22T05:15:53;23.50;;;15.90;;
14903;SDS011;7543;53.148;8.234;2023-06-22T05:18:30;23.27;;;15.40;;
14903;SDS011;7543;53.148;8.234;2023-06-22T05:20:59;20.33;;;13.63;;
14903;SDS011;7543;53.148;8.234;2023-06-22T05:23:28;19.50;;;14.17;;
14903;SDS011;7543;53.148;8.234;2023-06-22T05:25:56;21.60;;;15.00;;
14903;SDS011;7543;53.148;8.234;2023-06-22T05:28:24;21.03;;;14.90;;
14903;SDS011;7543;53.148;8.234;2023-06-22T05:30:53;23.03;;;15.17;;
14903;SDS011;7543;53.148;8.234;2023-06-22T05:33:21;18.20;;;13.97;;
14903;SDS011;7543;53.148;8.234;2023-06-22T05:35:51;23.73;;;14.13;;
14903;SDS011;7543;53.148;8.234;2023-06-22T05:38:19;20.77;;;13.97;;
14903;SDS011;7543;53.148;8.234;2023-06-22T05:40:48;19.43;;;14.53;;
14903;SDS011;7543;53.148;8.234;2023-06-22T05:43:17;20.67;;;13.97;;
14903;SDS011;7543;53.148;8.234;2023-06-22T05:45:45;19.30;;;13.40;;
14903;SDS011;7543;53.148;8.234;2023-06-22T05:48:13;18.80;;;13.37;;
14903;SDS011;7543;53.148;8.234;2023-06-22T05:50:42;20.57;;;13.67;;
14903;SDS011;7543;53.148;8.234;2023-06-22T05:53:12;19.20;;;13.40;;
14903;SDS011;7543;53.148;8.234;2023-06-22T05:55:40;19.83;;;13.33;;
14903;SDS011;7543;53.148;8.234;2023-06-22T05:58:09;18.50;;;12.33;;
14903;SDS011;7543;53.148;8.234;2023-06-22T06:00:37;16.30;;;11.27;;
14903;SDS011;7543;53.148;8.234;2023-06-22T06:03:06;16.80;;;11.43;;
14903;SDS011;7543;53.148;8.234;2023-06-22T06:05:35;15.03;;;10.17;;
14903;SDS011;7543;53.148;8.234;2023-06-22T06:08:05;13.00;;;9.63;;
14903;SDS011;7543;53.148;8.234;2023-06-22T06:10:35;14.90;;;10.03;;
14903;SDS011;7543;53.148;8.234;2023-06-22T06:13:03;15.30;;;9.80;;
14903;SDS011;7543;53.148;8.234;2023-06-22T06:15:32;14.10;;;10.17;;
14903;SDS011;7543;53.148;8.234;2023-06-22T06:18:02;14.10;;;9.40;;
14903;SDS011;7543;53.148;8.234;2023-06-22T06:20:31;13.40;;;9.17;;
14903;SDS011;7543;53.148;8.234;2023-06-22T06:23:02;14.37;;;9.33;;
14903;SDS011;7543;53.148;8.234;2023-06-22T06:25:31;13.67;;;9.83;;
14903;SDS011;7543;53.148;8.234;2023-06-22T06:28:00;11.80;;;8.13;;
14903;SDS011;7543;53.148;8.234;2023-06-22T06:30:29;12.20;;;8.60;;
14903;SDS011;7543;53.148;8.234;2023-06-22T06:32:57;12.07;;;7.88;;
14903;SDS011;7543;53.148;8.234;2023-06-22T06:35:25;12.33;;;8.40;;
14903;SDS011;7543;53.148;8.234;2023-06-22T06:37:54;11.30;;;8.40;;
14903;SDS011;7543;53.148;8.234;2023-06-22T06:40:22;12.30;;;8.90;;
14903;SDS011;7543;53.148;8.234;2023-06-22T06:42:51;13.10;;;8.17;;
14903;SDS011;7543;53.148;8.234;2023-06-22T06:45:21;12.50;;;8.37;;
14903;SDS011;7543;53.148;8.234;2023-06-22T06:47:51;10.45;;;7.35;;
14903;SDS011;7543;53.148;8.234;2023-06-22T06:50:20;11.27;;;7.43;;
14903;SDS011;7543;53.148;8.234;2023-06-22T06:52:48;11.00;;;7.30;;
14903;SDS011;7543;53.148;8.234;2023-06-22T06:55:18;9.33;;;6.80;;
14903;SDS011;7543;53.148;8.234;2023-06-22T06:57:47;9.63;;;6.63;;
14903;SDS011;7543;53.148;8.234;2023-06-22T07:00:17;10.07;;;7.25;;
14903;SDS011;7543;53.148;8.234;2023-06-22T07:02:47;8.00;;;6.07;;
14903;SDS011;7543;53.148;8.234;2023-06-22T07:05:16;8.90;;;6.33;;
14903;SDS011;7543;53.148;8.234;2023-06-22T07:07:44;8.25;;;6.03;;
14903;SDS011;7543;53.148;8.234;2023-06-22T07:10:12;8.77;;;6.40;;
14903;SDS011;7543;53.148;8.234;2023-06-22T07:12:42;8.80;;;6.03;;
14903;SDS011;7543;53.148;8.234;2023-06-22T07:15:10;7.45;;;5.82;;
14903;SDS011;7543;53.148;8.234;2023-06-22T07:17:39;8.32;;;6.05;;
14903;SDS011;7543;53.148;8.234;2023-06-22T07:20:10;8.50;;;5.50;;
14903;SDS011;7543;53.148;8.234;2023-06-22T07:22:59;7.35;;;5.22;;
14903;SDS011;7543;53.148;8.234;2023-06-22T07:25:28;10.13;;;5.32;;
14903;SDS011;7543;53.148;8.234;2023-06-22T07:27:57;7.18;;;5.55;;
14903;SDS011;7543;53.148;8.234;2023-06-22T07:30:26;9.75;;;5.55;;
14903;SDS011;7543;53.148;8.234;2023-06-22T07:32:54;6.93;;;4.45;;
14903;SDS011;7543;53.148;8.234;2023-06-22T07:35:24;8.80;;;4.80;;
14903;SDS011;7543;53.148;8.234;2023-06-22T07:37:53;7.03;;;4.95;;
14903;SDS011;7543;53.148;8.234;2023-06-22T07:40:21;7.45;;;4.57;;
14903;SDS011;7543;53.148;8.234;2023-06-22T07:42:50;7.90;;;4.47;;
14903;SDS011;7543;53.148;8.234;2023-06-22T07:45:20;7.38;;;3.90;;
14903;SDS011;7543;53.148;8.234;2023-06-22T07:47:49;5.97;;;4.18;;
14903;SDS011;7543;53.148;8.234;2023-06-22T07:50:17;4.85;;;3.70;;
14903;SDS011;7543;53.148;8.234;2023-06-22T07:52:47;5.00;;;3.60;;
14903;SDS011;7543;53.148;8.234;2023-06-22T07:55:16;5.03;;;3.50;;
14903;SDS011;7543;53.148;8.234;2023-06-22T07:57:46;5.45;;;3.30;;
14903;SDS011;7543;53.148;8.234;2023-06-22T08:00:15;5.03;;;3.75;;
14903;SDS011;7543;53.148;8.234;2023-06-22T08:02:44;5.22;;;3.75;;
14903;SDS011;7543;53.148;8.234;2023-06-22T08:05:14;5.38;;;3.60;;
14903;SDS011;7543;53.148;8.234;2023-06-22T08:07:44;6.22;;;4.00;;
14903;SDS011;7543;53.148;8.234;2023-06-22T08:10:14;6.05;;;3.78;;
14903;SDS011;7543;53.148;8.234;2023-06-22T08:12:42;5.38;;;3.70;;
14903;SDS011;7543;53.148;8.234;2023-06-22T08:15:10;5.10;;;3.40;;
14903;SDS011;7543;53.148;8.234;2023-06-22T08:17:39;7.00;;;3.33;;
14903;SDS011;7543;53.148;8.234;2023-06-22T08:20:08;5.38;;;3.55;;
14903;SDS011;7543;53.148;8.234;2023-06-22T08:22:38;6.55;;;3.80;;
14903;SDS011;7543;53.148;8.234;2023-06-22T08:25:07;5.10;;;3.45;;
14903;SDS011;7543;53.148;8.234;2023-06-22T08:27:37;5.53;;;4.22;;
14903;SDS011;7543;53.148;8.234;2023-06-22T08:30:06;4.78;;;3.63;;
14903;SDS011;7543;53.148;8.234;2023-06-22T08:32:37;7.18;;;3.45;;
14903;SDS011;7543;53.148;8.234;2023-06-22T08:35:06;5.93;;;3.97;;
14903;SDS011;7543;53.148;8.234;2023-06-22T08:37:35;5.20;;;3.28;;
14903;SDS011;7543;53.148;8.234;2023-06-22T08:40:06;5.50;;;3.72;;
14903;SDS011;7543;53.148;8.234;2023-06-22T08:42:38;6.22;;;4.18;;
14903;SDS011;7543;53.148;8.234;2023-06-22T08:45:08;5.85;;;4.40;;
14903;SDS011;7543;53.148;8.234;2023-06-22T08:47:37;7.40;;;4.30;;
14903;SDS011;7543;53.148;8.234;2023-06-22T08:50:06;7.55;;;5.20;;
14903;SDS011;7543;53.148;8.234;2023-06-22T08:52:35;5.80;;;4.32;;
14903;SDS011;7543;53.148;8.234;2023-06-22T08:55:04;5.47;;;3.97;;
14903;SDS011;7543;53.148;8.234;2023-06-22T08:57:33;10.13;;;4.22;;
14903;SDS011;7543;53.148;8.234;2023-06-22T09:00:06;7.68;;;4.07;;
14903;SDS011;7543;53.148;8.234;2023-06-22T09:02:42;5.53;;;3.67;;
14903;SDS011;7543;53.148;8.234;2023-06-22T09:05:11;5.25;;;3.85;;
14903;SDS011;7543;53.148;8.234;2023-06-22T09:07:39;7.75;;;3.65;;
14903;SDS011;7543;53.148;8.234;2023-06-22T09:10:08;6.55;;;4.05;;
14903;SDS011;7543;53.148;8.234;2023-06-22T09:12:36;9.98;;;4.72;;
14903;SDS011;7543;53.148;8.234;2023-06-22T09:15:06;7.00;;;4.40;;
14903;SDS011;7543;53.148;8.234;2023-06-22T09:17:35;7.47;;;5.00;;
14903;SDS011;7543;53.148;8.234;2023-06-22T09:20:04;6.00;;;4.38;;
14903;SDS011;7543;53.148;8.234;2023-06-22T09:22:34;5.28;;;3.92;;
14903;SDS011;7543;53.148;8.234;2023-06-22T09:25:03;6.05;;;3.75;;
14903;SDS011;7543;53.148;8.234;2023-06-22T09:27:32;6.00;;;3.92;;
14903;SDS011;7543;53.148;8.234;2023-06-22T09:30:00;4.68;;;3.40;;
14903;SDS011;7543;53.148;8.234;2023-06-22T09:32:31;5.97;;;3.45;;
14903;SDS011;7543;53.148;8.234;2023-06-22T09:35:02;6.30;;;3.90;;
14903;SDS011;7543;53.148;8.234;2023-06-22T09:37:32;5.05;;;3.42;;
14903;SDS011;7543;53.148;8.234;2023-06-22T09:40:01;5.60;;;3.60;;
14903;SDS011;7543;53.148;8.234;2023-06-22T09:42:31;4.60;;;3.38;;
14903;SDS011;7543;53.148;8.234;2023-06-22T09:45:00;5.38;;;3.53;;
14903;SDS011;7543;53.148;8.234;2023-06-22T09:47:29;4.72;;;3.53;;
14903;SDS011;7543;53.148;8.234;2023-06-22T09:50:00;5.60;;;3.67;;
14903;SDS011;7543;53.148;8.234;2023-06-22T09:52:28;5.65;;;3.50;;
14903;SDS011;7543;53.148;8.234;2023-06-22T09:54:56;3.58;;;2.78;;
14903;SDS011;7543;53.148;8.234;2023-06-22T09:57:25;7.28;;;3.13;;
14903;SDS011;7543;53.148;8.234;2023-06-22T09:59:53;4.30;;;2.85;;
14903;SDS011;7543;53.148;8.234;2023-06-22T10:02:21;4.85;;;3.25;;
14903;SDS011;7543;53.148;8.234;2023-06-22T10:04:50;4.30;;;3.00;;
14903;SDS011;7543;53.148;8.234;2023-06-22T10:07:19;3.72;;;2.88;;
14903;SDS011;7543;53.148;8.234;2023-06-22T10:09:48;4.40;;;3.17;;
14903;SDS011;7543;53.148;8.234;2023-06-22T10:12:16;3.75;;;3.00;;
14903;SDS011;7543;53.148;8.234;2023-06-22T10:14:44;3.90;;;3.10;;
14903;SDS011;7543;53.148;8.234;2023-06-22T10:17:13;5.18;;;3.63;;
14903;SDS011;7543;53.148;8.234;2023-06-22T10:19:41;6.20;;;3.55;;
14903;SDS011;7543;53.148;8.234;2023-06-22T10:22:09;4.47;;;3.40;;
14903;SDS011;7543;53.148;8.234;2023-06-22T10:24:39;4.13;;;2.97;;
14903;SDS011;7543;53.148;8.234;2023-06-22T10:27:15;4.10;;;2.80;;
14903;SDS011;7543;53.148;8.234;2023-06-22T10:29:44;3.40;;;2.70;;
14903;SDS011;7543;53.148;8.234;2023-06-22T10:32:13;4.25;;;2.97;;
14903;SDS011;7543;53.148;8.234;2023-06-22T10:34:42;4.15;;;3.00;;
14903;SDS011;7543;53.148;8.234;2023-06-22T10:37:12;3.90;;;3.17;;
14903;SDS011;7543;53.148;8.234;2023-06-22T10:39:41;3.78;;;3.13;;
14903;SDS011;7543;53.148;8.234;2023-06-22T10:42:11;4.93;;;3.05;;
14903;SDS011;7543;53.148;8.234;2023-06-22T10:44:41;4.40;;;3.28;;
14903;SDS011;7543;53.148;8.234;2023-06-22T10:47:12;5.53;;;3.60;;
14903;SDS011;7543;53.148;8.234;2023-06-22T10:49:41;5.25;;;3.67;;
14903;SDS011;7543;53.148;8.234;2023-06-22T10:52:09;5.47;;;3.25;;
14903;SDS011;7543;53.148;8.234;2023-06-22T10:54:38;4.15;;;3.25;;
14903;SDS011;7543;53.148;8.234;2023-06-22T10:57:08;4.82;;;3.67;;
14903;SDS011;7543;53.148;8.234;2023-06-22T10:59:36;5.15;;;3.45;;
14903;SDS011;7543;53.148;8.234;2023-06-22T11:02:05;4.22;;;3.03;;
14903;SDS011;7543;53.148;8.234;2023-06-22T11:04:33;4.00;;;3.17;;
14903;SDS011;7543;53.148;8.234;2023-06-22T11:07:02;4.55;;;3.58;;
14903;SDS011;7543;53.148;8.234;2023-06-22T11:09:30;5.60;;;3.60;;
14903;SDS011;7543;53.148;8.234;2023-06-22T11:11:58;5.03;;;3.40;;
14903;SDS011;7543;53.148;8.234;2023-06-22T11:14:29;6.22;;;3.30;;
14903;SDS011;7543;53.148;8.234;2023-06-22T11:16:57;5.75;;;4.28;;
14903;SDS011;7543;53.148;8.234;2023-06-22T11:19:25;5.40;;;3.40;;
14903;SDS011;7543;53.148;8.234;2023-06-22T11:21:54;5.35;;;3.70;;
14903;SDS011;7543;53.148;8.234;2023-06-22T11:24:22;4.60;;;3.47;;
14903;SDS011;7543;53.148;8.234;2023-06-22T11:26:50;5.47;;;3.13;;
14903;SDS011;7543;53.148;8.234;2023-06-22T11:29:19;4.05;;;3.33;;
14903;SDS011;7543;53.148;8.234;2023-06-22T11:31:49;5.20;;;3.35;;
14903;SDS011;7543;53.148;8.234;2023-06-22T11:34:17;4.25;;;3.28;;
14903;SDS011;7543;53.148;8.234;2023-06-22T11:36:45;3.92;;;3.22;;
14903;SDS011;7543;53.148;8.234;2023-06-22T11:39:15;4.93;;;3.20;;
14903;SDS011;7543;53.148;8.234;2023-06-22T11:41:43;5.88;;;2.97;;
14903;SDS011;7543;53.148;8.234;2023-06-22T11:44:11;4.47;;;2.88;;
14903;SDS011;7543;53.148;8.234;2023-06-22T11:46:40;4.97;;;2.83;;
14903;SDS011;7543;53.148;8.234;2023-06-22T11:49:09;4.70;;;3.10;;
14903;SDS011;7543;53.148;8.234;2023-06-22T11:51:37;4.60;;;3.33;;
14903;SDS011;7543;53.148;8.234;2023-06-22T11:54:06;4.75;;;3.45;;
14903;SDS011;7543;53.148;8.234;2023-06-22T11:56:34;4.95;;;3.58;;
14903;SDS011;7543;53.148;8.234;2023-06-22T11:59:02;4.80;;;3.80;;
14903;SDS011;7543;53.148;8.234;2023-06-22T12:01:31;4.25;;;3.30;;
14903;SDS011;7543;53.148;8.234;2023-06-22T12:04:00;4.50;;;3.20;;
14903;SDS011;7543;53.148;8.234;2023-06-22T12:06:33;4.15;;;3.00;;
14903;SDS011;7543;53.148;8.234;2023-06-22T12:09:04;5.10;;;4.13;;
14903;SDS011;7543;53.148;8.234;2023-06-22T12:11:33;6.60;;;3.80;;
14903;SDS011;7543;53.148;8.234;2023-06-22T12:14:01;5.22;;;3.80;;
14903;SDS011;7543;53.148;8.234;2023-06-22T12:16:29;6.38;;;3.88;;
14903;SDS011;7543;53.148;8.234;2023-06-22T12:18:58;5.30;;;4.00;;
14903;SDS011;7543;53.148;8.234;2023-06-22T12:21:26;4.38;;;3.67;;
14903;SDS011;7543;53.148;8.234;2023-06-22T12:23:57;4.32;;;3.58;;
14903;SDS011;7543;53.148;8.234;2023-06-22T12:26:25;5.80;;;3.33;;
14903;SDS011;7543;53.148;8.234;2023-06-22T12:28:53;4.25;;;3.50;;
14903;SDS011;7543;53.148;8.234;2023-06-22T12:31:22;5.20;;;3.60;;
14903;SDS011;7543;53.148;8.234;2023-06-22T12:33:50;5.35;;;3.40;;
14903;SDS011;7543;53.148;8.234;2023-06-22T12:36:18;4.55;;;3.30;;
14903;SDS011;7543;53.148;8.234;2023-06-22T12:38:47;4.90;;;3.70;;
14903;SDS011;7543;53.148;8.234;2023-06-22T12:41:16;4.50;;;3.22;;
14903;SDS011;7543;53.148;8.234;2023-06-22T12:43:46;6.32;;;4.40;;
14903;SDS011;7543;53.148;8.234;2023-06-22T12:46:14;7.28;;;3.80;;
14903;SDS011;7543;53.148;8.234;2023-06-22T12:48:42;4.07;;;3.35;;
14903;SDS011;7543;53.148;8.234;2023-06-22T12:51:11;5.78;;;3.90;;
14903;SDS011;7543;53.148;8.234;2023-06-22T12:53:39;4.85;;;3.70;;
14903;SDS011;7543;53.148;8.234;2023-06-22T12:56:07;4.80;;;3.50;;
14903;SDS011;7543;53.148;8.234;2023-06-22T12:58:37;5.07;;;3.78;;
14903;SDS011;7543;53.148;8.234;2023-06-22T13:01:05;4.10;;;3.28;;
14903;SDS011;7543;53.148;8.234;2023-06-22T13:03:33;5.15;;;3.75;;
14903;SDS011;7543;53.148;8.234;2023-06-22T13:06:02;4.35;;;3.47;;
14903;SDS011;7543;53.148;8.234;2023-06-22T13:08:31;4.07;;;3.17;;
14903;SDS011;7543;53.148;8.234;2023-06-22T13:11:00;6.85;;;4.03;;
14903;SDS011;7543;53.148;8.234;2023-06-22T13:13:28;5.30;;;3.85;;
14903;SDS011;7543;53.148;8.234;2023-06-22T13:15:58;6.50;;;4.13;;
14903;SDS011;7543;53.148;8.234;2023-06-22T13:18:27;5.22;;;4.30;;
14903;SDS011;7543;53.148;8.234;2023-06-22T13:20:55;5.93;;;3.90;;
14903;SDS011;7543;53.148;8.234;2023-06-22T13:23:24;5.40;;;4.38;;
14903;SDS011;7543;53.148;8.234;2023-06-22T13:25:53;5.22;;;4.38;;
14903;SDS011;7543;53.148;8.234;2023-06-22T13:28:21;6.30;;;4.57;;
14903;SDS011;7543;53.148;8.234;2023-06-22T13:30:49;4.53;;;3.72;;
14903;SDS011;7543;53.148;8.234;2023-06-22T13:33:19;6.22;;;4.30;;
14903;SDS011;7543;53.148;8.234;2023-06-22T13:35:47;4.20;;;3.80;;
14903;SDS011;7543;53.148;8.234;2023-06-22T13:38:16;5.38;;;4.10;;
14903;SDS011;7543;53.148;8.234;2023-06-22T13:40:44;5.18;;;3.95;;
14903;SDS011;7543;53.148;8.234;2023-06-22T13:43:14;4.47;;;4.07;;
14903;SDS011;7543;53.148;8.234;2023-06-22T13:45:42;4.13;;;3.53;;
14903;SDS011;7543;53.148;8.234;2023-06-22T13:48:11;5.43;;;3.53;;
14903;SDS011;7543;53.148;8.234;2023-06-22T13:50:41;4.88;;;4.00;;
14903;SDS011;7543;53.148;8.234;2023-06-22T13:53:09;5.05;;;3.75;;
14903;SDS011;7543;53.148;8.234;2023-06-22T13:55:38;5.43;;;4.22;;
14903;SDS011;7543;53.148;8.234;2023-06-22T13:58:07;8.10;;;3.88;;
14903;SDS011;7543;53.148;8.234;2023-06-22T14:00:35;5.15;;;3.40;;
14903;SDS011;7543;53.148;8.234;2023-06-22T14:03:04;6.45;;;3.10;;
14903;SDS011;7543;53.148;8.234;2023-06-22T14:05:32;6.25;;;3.65;;
14903;SDS011;7543;53.148;8.234;2023-06-22T14:08:02;7.43;;;3.60;;
14903;SDS011;7543;53.148;8.234;2023-06-22T14:10:30;6.05;;;3.53;;
14903;SDS011;7543;53.148;8.234;2023-06-22T14:12:58;5.40;;;3.75;;
14903;SDS011;7543;53.148;8.234;2023-06-22T14:15:27;4.57;;;3.50;;
14903;SDS011;7543;53.148;8.234;2023-06-22T14:17:55;6.75;;;3.83;;
14903;SDS011;7543;53.148;8.234;2023-06-22T14:20:24;6.15;;;4.05;;
14903;SDS011;7543;53.148;8.234;2023-06-22T14:22:52;6.95;;;4.22;;
14903;SDS011;7543;53.148;8.234;2023-06-22T14:25:22;6.28;;;4.30;;
14903;SDS011;7543;53.148;8.234;2023-06-22T14:27:50;6.25;;;4.28;;
14903;SDS011;7543;53.148;8.234;2023-06-22T14:30:18;5.78;;;4.32;;
14903;SDS011;7543;53.148;8.234;2023-06-22T14:32:47;6.97;;;4.70;;
14903;SDS011;7543;53.148;8.234;2023-06-22T14:35:15;6.90;;;3.83;;
14903;SDS011;7543;53.148;8.234;2023-06-22T14:37:43;4.65;;;3.67;;
14903;SDS011;7543;53.148;8.234;2023-06-22T14:40:12;5.38;;;4.00;;
14903;SDS011;7543;53.148;8.234;2023-06-22T14:42:42;7.10;;;3.95;;
14903;SDS011;7543;53.148;8.234;2023-06-22T14:45:10;7.78;;;4.53;;
14903;SDS011;7543;53.148;8.234;2023-06-22T14:47:38;7.43;;;4.38;;
14903;SDS011;7543;53.148;8.234;2023-06-22T14:50:07;6.57;;;3.85;;
14903;SDS011;7543;53.148;8.234;2023-06-22T14:52:36;6.82;;;3.92;;
14903;SDS011;7543;53.148;8.234;2023-06-22T14:55:05;6.13;;;4.00;;
14903;SDS011;7543;53.148;8.234;2023-06-22T14:57:34;7.40;;;4.25;;
14903;SDS011;7543;53.148;8.234;2023-06-22T15:00:04;5.47;;;4.03;;
14903;SDS011;7543;53.148;8.234;2023-06-22T15:02:33;5.97;;;3.88;;